Time,TemperatureF,DewpointF,PressureIn,WindDirection,WindDirectionDegrees,WindSpeedMPH,WindSpeedGustMPH,Humidity,HourlyPrecipIn,Conditions,Clouds,dailyrainin,SolarRadiationWatts/m^2,SoftwareType,DateUTC
2013-01-31 00:00:00,57.3,55.6,29.46,SSW,195,8.0,12.0,94,0.08,,,0.00,0,WeatherCatV1.10B1570,2013-01-31 05:00:00,
2013-01-31 00:01:00,57.2,55.5,29.46,SSW,205,5.0,12.0,94,0.07,,,0.00,0,WeatherCatV1.10B1570,2013-01-31 05:01:00,
2013-01-31 00:06:00,57.1,55.1,29.45,SSW,204,7.0,7.0,93,0.07,,,0.01,0,WeatherCatV1.10B1570,2013-01-31 05:06:00,
2013-01-31 00:11:00,56.8,54.8,29.45,SSW,200,5.0,7.0,93,0.06,,,0.01,0,WeatherCatV1.10B1570,2013-01-31 05:11:00,
2013-01-31 00:16:00,56.7,54.4,29.47,SW,216,6.0,10.0,92,0.04,,,0.01,0,WeatherCatV1.10B1570,2013-01-31 05:16:00,
2013-01-31 00:21:00,56.4,54.1,29.45,SSW,201,7.0,9.0,92,0.00,,,0.01,0,WeatherCatV1.10B1570,2013-01-31 05:21:00,
2013-01-31 00:26:00,56.1,54.1,29.47,SSW,211,5.0,9.0,93,0.00,,,0.01,0,WeatherCatV1.10B1570,2013-01-31 05:26:00,
2013-01-31 00:31:00,55.7,53.4,29.46,WSW,256,8.0,9.0,92,0.00,,,0.02,0,WeatherCatV1.10B1570,2013-01-31 05:31:00,
2013-01-31 00:36:00,55.3,52.7,29.46,SSW,202,5.0,7.0,91,0.13,,,0.03,0,WeatherCatV1.10B1570,2013-01-31 05:36:00,
2013-01-31 00:41:00,54.9,52.6,29.45,South,173,6.0,8.0,92,0.08,,,0.03,0,WeatherCatV1.10B1570,2013-01-31 05:41:00,
2013-01-31 00:46:00,54.5,52.2,29.45,SSW,201,5.0,10.0,92,0.05,,,0.03,0,WeatherCatV1.10B1570,2013-01-31 05:46:00,
2013-01-31 00:51:00,54.3,52.0,29.46,SSW,205,7.0,9.0,92,0.00,,,0.03,0,WeatherCatV1.10B1570,2013-01-31 05:51:00,
2013-01-31 00:56:00,54.1,51.8,29.47,SSW,195,9.0,10.0,92,0.00,,,0.03,0,WeatherCatV1.10B1570,2013-01-31 05:56:00,
2013-01-31 01:01:00,54.1,51.2,29.47,WSW,247,8.0,10.0,90,0.00,,,0.03,0,WeatherCatV1.10B1570,2013-01-31 06:01:00,
2013-01-31 01:06:00,53.9,51.3,29.47,SSW,203,4.0,13.0,91,0.00,,,0.03,0,WeatherCatV1.10B1570,2013-01-31 06:06:00,
2013-01-31 01:11:00,53.7,51.1,29.45,SSW,195,4.0,7.0,91,0.00,,,0.03,0,WeatherCatV1.10B1570,2013-01-31 06:11:00,
2013-01-31 01:16:00,53.5,50.6,29.45,SSW,205,8.0,9.0,90,0.00,,,0.03,0,WeatherCatV1.10B1570,2013-01-31 06:16:00,
2013-01-31 01:21:00,53.4,50.5,29.46,SW,215,15.0,15.0,90,0.00,,,0.03,0,WeatherCatV1.10B1570,2013-01-31 06:21:00,
2013-01-31 01:26:00,53.2,50.3,29.48,SW,228,3.0,12.0,90,0.00,,,0.03,0,WeatherCatV1.10B1570,2013-01-31 06:26:00,
2013-01-31 01:31:00,52.8,50.2,29.47,SSW,193,3.0,8.0,91,0.00,,,0.04,0,WeatherCatV1.10B1570,2013-01-31 06:31:00,
2013-01-31 01:36:00,52.5,49.7,29.48,South,191,10.0,13.0,90,0.00,,,0.04,0,WeatherCatV1.10B1570,2013-01-31 06:36:00,
2013-01-31 01:41:00,52.3,49.5,29.48,SSW,203,4.0,9.0,90,0.00,,,0.04,0,WeatherCatV1.10B1570,2013-01-31 06:41:00,
2013-01-31 01:46:00,52.0,49.2,29.48,SSW,212,4.0,7.0,90,0.00,,,0.04,0,WeatherCatV1.10B1570,2013-01-31 06:46:00,
2013-01-31 01:51:00,51.8,48.7,29.47,SSW,194,7.0,10.0,89,0.00,,,0.04,0,WeatherCatV1.10B1570,2013-01-31 06:51:00,
2013-01-31 01:56:00,51.7,48.6,29.48,South,183,8.0,10.0,89,0.00,,,0.04,0,WeatherCatV1.10B1570,2013-01-31 06:56:00,
2013-01-31 02:01:00,51.5,48.1,29.47,SE,145,12.0,12.0,88,0.00,,,0.04,0,WeatherCatV1.10B1570,2013-01-31 07:01:00,
2013-01-31 02:06:00,51.3,47.3,29.47,SSW,203,5.0,14.0,86,0.00,,,0.04,0,WeatherCatV1.10B1570,2013-01-31 07:06:00,
2013-01-31 02:11:00,51.1,47.1,29.48,South,191,9.0,9.0,86,0.00,,,0.04,0,WeatherCatV1.10B1570,2013-01-31 07:11:00,
2013-01-31 02:16:00,50.9,46.9,29.49,WSW,246,7.0,11.0,86,0.00,,,0.04,0,WeatherCatV1.10B1570,2013-01-31 07:16:00,
2013-01-31 02:21:00,50.9,46.6,29.48,South,180,2.0,7.0,85,0.00,,,0.04,0,WeatherCatV1.10B1570,2013-01-31 07:21:00,
2013-01-31 02:26:00,50.7,46.7,29.48,WNW,290,4.0,10.0,86,0.00,,,0.04,0,WeatherCatV1.10B1570,2013-01-31 07:26:00,
2013-01-31 02:31:00,50.5,46.5,29.49,SSW,207,11.0,11.0,86,0.00,,,0.04,0,WeatherCatV1.10B1570,2013-01-31 07:31:00,
2013-01-31 02:36:00,50.3,46.0,29.49,South,184,5.0,13.0,85,0.00,,,0.04,0,WeatherCatV1.10B1570,2013-01-31 07:36:00,
2013-01-31 02:41:00,50.1,45.5,29.50,WNW,298,5.0,17.0,84,0.00,,,0.04,0,WeatherCatV1.10B1570,2013-01-31 07:41:00,
2013-01-31 02:46:00,49.9,45.6,29.49,SW,224,5.0,14.0,85,0.00,,,0.04,0,WeatherCatV1.10B1570,2013-01-31 07:46:00,
2013-01-31 02:51:00,49.7,45.1,29.50,SSW,200,5.0,23.0,84,0.00,,,0.04,0,WeatherCatV1.10B1570,2013-01-31 07:51:00,
2013-01-31 02:56:00,49.5,44.9,29.51,SSW,209,4.0,13.0,84,0.00,,,0.04,0,WeatherCatV1.10B1570,2013-01-31 07:56:00,
2013-01-31 03:01:00,49.4,45.1,29.51,SSW,198,5.0,8.0,85,0.00,,,0.04,0,WeatherCatV1.10B1570,2013-01-31 08:01:00,
2013-01-31 03:06:00,49.1,45.1,29.51,SW,214,6.0,11.0,86,0.00,,,0.04,0,WeatherCatV1.10B1570,2013-01-31 08:06:00,
2013-01-31 03:11:00,48.6,45.2,29.52,SW,222,8.0,16.0,88,0.00,,,0.04,0,WeatherCatV1.10B1570,2013-01-31 08:11:00,
2013-01-31 03:16:00,48.1,45.0,29.52,SW,214,5.0,8.0,89,0.00,,,0.04,0,WeatherCatV1.10B1570,2013-01-31 08:16:00,
2013-01-31 03:21:00,47.8,44.7,29.52,SSW,210,10.0,11.0,89,0.00,,,0.04,0,WeatherCatV1.10B1570,2013-01-31 08:21:00,
2013-01-31 03:26:00,47.6,44.8,29.52,SSW,209,5.0,12.0,90,0.00,,,0.04,0,WeatherCatV1.10B1570,2013-01-31 08:26:00,
2013-01-31 03:31:00,47.7,44.6,29.53,SSW,211,7.0,11.0,89,0.00,,,0.04,0,WeatherCatV1.10B1570,2013-01-31 08:31:00,
2013-01-31 03:36:00,47.7,44.3,29.53,SSW,213,3.0,9.0,88,0.00,,,0.04,0,WeatherCatV1.10B1570,2013-01-31 08:36:00,
2013-01-31 03:41:00,47.7,44.0,29.54,SSW,202,3.0,11.0,87,0.00,,,0.04,0,WeatherCatV1.10B1570,2013-01-31 08:41:00,
2013-01-31 03:46:00,47.7,42.8,29.54,SSW,208,5.0,11.0,83,0.00,,,0.04,0,WeatherCatV1.10B1570,2013-01-31 08:46:00,
2013-01-31 03:51:00,47.8,42.6,29.55,WSW,237,9.0,10.0,82,0.00,,,0.04,0,WeatherCatV1.10B1570,2013-01-31 08:51:00,
2013-01-31 03:56:00,47.9,42.7,29.55,WSW,238,5.0,11.0,82,0.00,,,0.04,0,WeatherCatV1.10B1570,2013-01-31 08:56:00,
2013-01-31 04:01:00,47.8,42.9,29.56,SW,232,4.0,12.0,83,0.00,,,0.04,0,WeatherCatV1.10B1570,2013-01-31 09:01:00,
2013-01-31 04:06:00,47.8,42.3,29.56,South,178,7.0,8.0,81,0.00,,,0.04,0,WeatherCatV1.10B1570,2013-01-31 09:06:00,
2013-01-31 04:11:00,47.8,41.9,29.56,WSW,246,4.0,6.0,80,0.00,,,0.04,0,WeatherCatV1.10B1570,2013-01-31 09:11:00,
2013-01-31 04:16:00,47.7,39.1,29.57,SSW,211,3.0,14.0,72,0.00,,,0.04,0,WeatherCatV1.10B1570,2013-01-31 09:16:00,
2013-01-31 04:21:00,47.6,38.3,29.58,WNW,286,4.0,11.0,70,0.00,,,0.04,0,WeatherCatV1.10B1570,2013-01-31 09:21:00,
2013-01-31 04:26:00,47.4,37.0,29.58,SW,222,6.0,12.0,67,0.00,,,0.04,0,WeatherCatV1.10B1570,2013-01-31 09:26:00,
2013-01-31 04:31:00,47.4,36.6,29.58,West,276,9.0,9.0,66,0.00,,,0.04,0,WeatherCatV1.10B1570,2013-01-31 09:31:00,
2013-01-31 04:36:00,47.1,36.7,29.59,WSW,247,4.0,9.0,67,0.00,,,0.04,0,WeatherCatV1.10B1570,2013-01-31 09:36:00,
2013-01-31 04:41:00,46.8,36.0,29.59,SW,226,8.0,10.0,66,0.00,,,0.04,0,WeatherCatV1.10B1570,2013-01-31 09:41:00,
2013-01-31 04:46:00,46.7,36.0,29.60,SW,217,5.0,12.0,66,0.00,,,0.04,0,WeatherCatV1.10B1570,2013-01-31 09:46:00,
2013-01-31 04:51:00,46.5,36.1,29.61,SSW,200,13.0,14.0,67,0.00,,,0.04,0,WeatherCatV1.10B1570,2013-01-31 09:51:00,
2013-01-31 04:56:00,46.4,35.7,29.61,WNW,285,5.0,11.0,66,0.00,,,0.04,0,WeatherCatV1.10B1570,2013-01-31 09:56:00,
2013-01-31 05:01:00,46.1,35.8,29.61,WNW,285,12.0,12.0,67,0.00,,,0.04,0,WeatherCatV1.10B1570,2013-01-31 10:01:00,
2013-01-31 05:06:00,45.8,35.8,29.62,WSW,238,3.0,6.0,68,0.00,,,0.04,0,WeatherCatV1.10B1570,2013-01-31 10:06:00,
2013-01-31 05:11:00,45.7,35.4,29.62,SSW,211,4.0,7.0,67,0.00,,,0.04,0,WeatherCatV1.10B1570,2013-01-31 10:11:00,
2013-01-31 05:16:00,45.5,35.2,29.63,West,261,3.0,17.0,67,0.00,,,0.04,0,WeatherCatV1.10B1570,2013-01-31 10:16:00,
2013-01-31 05:21:00,45.3,35.4,29.64,West,265,5.0,6.0,68,0.00,,,0.04,0,WeatherCatV1.10B1570,2013-01-31 10:21:00,
2013-01-31 05:26:00,45.0,35.5,29.64,SW,218,3.0,12.0,69,0.00,,,0.04,0,WeatherCatV1.10B1570,2013-01-31 10:26:00,
2013-01-31 05:31:00,44.6,35.1,29.64,WSW,255,13.0,13.0,69,0.00,,,0.04,0,WeatherCatV1.10B1570,2013-01-31 10:31:00,
2013-01-31 05:36:00,44.5,34.6,29.65,West,276,2.0,7.0,68,0.00,,,0.04,0,WeatherCatV1.10B1570,2013-01-31 10:36:00,
2013-01-31 05:41:00,44.2,34.3,29.65,SSW,213,2.0,7.0,68,0.00,,,0.04,0,WeatherCatV1.10B1570,2013-01-31 10:41:00,
2013-01-31 05:46:00,43.9,34.0,29.66,SW,234,11.0,15.0,68,0.00,,,0.04,0,WeatherCatV1.10B1570,2013-01-31 10:46:00,
2013-01-31 05:51:00,43.7,33.8,29.66,West,268,7.0,9.0,68,0.00,,,0.04,0,WeatherCatV1.10B1570,2013-01-31 10:51:00,
2013-01-31 05:56:00,43.5,33.3,29.66,WSW,253,11.0,17.0,67,0.00,,,0.04,0,WeatherCatV1.10B1570,2013-01-31 10:56:00,
2013-01-31 06:01:00,43.4,33.2,29.67,SW,236,2.0,9.0,67,0.00,,,0.04,0,WeatherCatV1.10B1570,2013-01-31 11:01:00,
2013-01-31 06:06:00,43.2,33.0,29.67,WSW,243,3.0,12.0,67,0.00,,,0.04,0,WeatherCatV1.10B1570,2013-01-31 11:06:00,
2013-01-31 06:11:00,42.9,32.7,29.68,South,180,6.0,10.0,67,0.00,,,0.04,0,WeatherCatV1.10B1570,2013-01-31 11:11:00,
2013-01-31 06:16:00,42.8,32.6,29.69,NW,307,8.0,9.0,67,0.00,,,0.04,0,WeatherCatV1.10B1570,2013-01-31 11:16:00,
2013-01-31 06:21:00,42.8,32.6,29.69,WSW,244,3.0,19.0,67,0.00,,,0.04,0,WeatherCatV1.10B1570,2013-01-31 11:21:00,
2013-01-31 06:26:00,42.8,32.6,29.69,WSW,245,5.0,16.0,67,0.00,,,0.04,0,WeatherCatV1.10B1570,2013-01-31 11:26:00,
2013-01-31 06:31:00,42.7,32.5,29.70,SE,144,6.0,10.0,67,0.00,,,0.04,0,WeatherCatV1.10B1570,2013-01-31 11:31:00,
2013-01-31 06:36:00,42.5,32.3,29.71,WNW,303,7.0,9.0,67,0.00,,,0.04,0,WeatherCatV1.10B1570,2013-01-31 11:36:00,
2013-01-31 06:41:00,42.3,30.6,29.72,West,279,17.0,17.0,63,0.00,,,0.04,0,WeatherCatV1.10B1570,2013-01-31 11:41:00,
2013-01-31 06:46:00,42.0,29.5,29.72,SW,222,6.0,16.0,61,0.00,,,0.04,0,WeatherCatV1.10B1570,2013-01-31 11:46:00,
2013-01-31 06:51:00,41.5,29.1,29.73,WSW,238,3.0,11.0,61,0.00,,,0.04,0,WeatherCatV1.10B1570,2013-01-31 11:51:00,
2013-01-31 06:56:00,41.1,27.9,29.73,SSW,197,4.0,15.0,59,0.00,,,0.04,0,WeatherCatV1.10B1570,2013-01-31 11:56:00,
2013-01-31 07:01:00,40.9,27.3,29.74,North,2,3.0,15.0,58,0.00,,,0.04,0,WeatherCatV1.10B1570,2013-01-31 12:01:00,
2013-01-31 07:06:00,40.7,26.7,29.74,SW,222,4.0,19.0,57,0.00,,,0.04,0,WeatherCatV1.10B1570,2013-01-31 12:06:00,
2013-01-31 07:11:00,40.5,26.5,29.75,SW,220,4.0,14.0,57,0.00,,,0.04,0,WeatherCatV1.10B1570,2013-01-31 12:11:00,
2013-01-31 07:16:00,40.2,26.2,29.75,WSW,247,5.0,6.0,57,0.00,,,0.04,0,WeatherCatV1.10B1570,2013-01-31 12:16:00,
2013-01-31 07:21:00,40.0,26.0,29.75,West,274,8.0,13.0,57,0.00,,,0.04,5,WeatherCatV1.10B1570,2013-01-31 12:21:00,
2013-01-31 07:26:00,39.7,26.1,29.75,NW,315,7.0,7.0,58,0.00,,,0.04,7,WeatherCatV1.10B1570,2013-01-31 12:26:00,
2013-01-31 07:31:00,39.6,26.1,29.76,WSW,243,6.0,7.0,58,0.00,,,0.04,9,WeatherCatV1.10B1570,2013-01-31 12:31:00,
2013-01-31 07:36:00,39.4,25.9,29.76,WSW,238,5.0,7.0,58,0.00,,,0.04,12,WeatherCatV1.10B1570,2013-01-31 12:36:00,
2013-01-31 07:41:00,39.3,25.4,29.77,WSW,247,2.0,11.0,57,0.00,,,0.04,14,WeatherCatV1.10B1570,2013-01-31 12:41:00,
2013-01-31 07:46:00,39.2,25.7,29.77,WSW,248,1.0,8.0,58,0.00,,,0.04,16,WeatherCatV1.10B1570,2013-01-31 12:46:00,
2013-01-31 07:51:00,39.1,26.0,29.77,West,276,4.0,12.0,59,0.00,,,0.04,19,WeatherCatV1.10B1570,2013-01-31 12:51:00,
2013-01-31 07:56:00,39.1,26.4,29.78,West,263,4.0,7.0,60,0.00,,,0.04,26,WeatherCatV1.10B1570,2013-01-31 12:56:00,
2013-01-31 08:01:00,39.1,26.0,29.79,West,264,6.0,6.0,59,0.00,,,0.04,39,WeatherCatV1.10B1570,2013-01-31 13:01:00,
2013-01-31 08:06:00,39.2,26.1,29.79,West,261,4.0,13.0,59,0.00,,,0.04,58,WeatherCatV1.10B1570,2013-01-31 13:06:00,
2013-01-31 08:11:00,39.2,26.5,29.80,WNW,295,3.0,9.0,60,0.00,,,0.04,74,WeatherCatV1.10B1570,2013-01-31 13:11:00,
2013-01-31 08:16:00,39.3,26.6,29.80,South,190,7.0,9.0,60,0.00,,,0.04,91,WeatherCatV1.10B1570,2013-01-31 13:16:00,
2013-01-31 08:21:00,39.4,26.3,29.81,WNW,301,6.0,8.0,59,0.00,,,0.04,107,WeatherCatV1.10B1570,2013-01-31 13:21:00,
2013-01-31 08:26:00,39.5,26.4,29.81,WNW,294,4.0,10.0,59,0.00,,,0.04,125,WeatherCatV1.10B1570,2013-01-31 13:26:00,
2013-01-31 08:31:00,39.5,26.0,29.82,WNW,283,9.0,9.0,58,0.00,,,0.04,144,WeatherCatV1.10B1570,2013-01-31 13:31:00,
2013-01-31 08:36:00,39.6,26.5,29.82,WSW,243,5.0,8.0,59,0.00,,,0.04,162,WeatherCatV1.10B1570,2013-01-31 13:36:00,
2013-01-31 08:41:00,39.7,25.3,29.82,NW,322,4.0,9.0,56,0.00,,,0.04,183,WeatherCatV1.10B1570,2013-01-31 13:41:00,
2013-01-31 08:46:00,39.7,25.7,29.82,SSW,203,4.0,12.0,57,0.00,,,0.04,204,WeatherCatV1.10B1570,2013-01-31 13:46:00,
2013-01-31 08:51:00,39.7,24.9,29.83,WNW,303,3.0,7.0,55,0.00,,,0.04,223,WeatherCatV1.10B1570,2013-01-31 13:51:00,
2013-01-31 08:56:00,39.8,25.4,29.83,West,264,2.0,12.0,56,0.00,,,0.04,197,WeatherCatV1.10B1570,2013-01-31 13:56:00,
2013-01-31 09:01:00,39.8,24.5,29.84,NW,322,9.0,18.0,54,0.00,,,0.04,162,WeatherCatV1.10B1570,2013-01-31 14:01:00,
2013-01-31 09:06:00,39.8,24.5,29.84,West,280,4.0,10.0,54,0.00,,,0.04,169,WeatherCatV1.10B1570,2013-01-31 14:06:00,
2013-01-31 09:11:00,40.1,24.4,29.85,WNW,290,6.0,12.0,53,0.00,,,0.04,225,WeatherCatV1.10B1570,2013-01-31 14:11:00,
2013-01-31 09:16:00,40.2,24.5,29.85,SW,224,7.0,9.0,53,0.00,,,0.04,104,WeatherCatV1.10B1570,2013-01-31 14:16:00,
2013-01-31 09:21:00,40.2,23.1,29.86,West,265,11.0,19.0,50,0.00,,,0.04,227,WeatherCatV1.10B1570,2013-01-31 14:21:00,
2013-01-31 09:26:00,40.1,22.5,29.86,WSW,237,5.0,10.0,49,0.00,,,0.04,297,WeatherCatV1.10B1570,2013-01-31 14:26:00,
2013-01-31 09:31:00,40.1,22.5,29.87,WSW,253,9.0,18.0,49,0.00,,,0.04,234,WeatherCatV1.10B1570,2013-01-31 14:31:00,
2013-01-31 09:36:00,40.1,23.0,29.86,SW,217,2.0,16.0,50,0.00,,,0.04,250,WeatherCatV1.10B1570,2013-01-31 14:36:00,
2013-01-31 09:41:00,40.4,22.8,29.86,WSW,247,3.0,10.0,49,0.00,,,0.04,292,WeatherCatV1.10B1570,2013-01-31 14:41:00,
2013-01-31 09:46:00,40.5,21.9,29.86,West,276,11.0,16.0,47,0.00,,,0.04,364,WeatherCatV1.10B1570,2013-01-31 14:46:00,
2013-01-31 09:51:00,40.5,21.4,29.87,WNW,297,5.0,22.0,46,0.00,,,0.04,413,WeatherCatV1.10B1570,2013-01-31 14:51:00,
2013-01-31 09:56:00,40.6,22.5,29.87,WNW,299,8.0,16.0,48,0.00,,,0.04,425,WeatherCatV1.10B1570,2013-01-31 14:56:00,
2013-01-31 10:01:00,40.6,22.0,29.87,West,265,12.0,17.0,47,0.00,,,0.04,439,WeatherCatV1.10B1570,2013-01-31 15:01:00,
2013-01-31 10:06:00,40.6,21.5,29.87,WNW,288,7.0,14.0,46,0.00,,,0.04,446,WeatherCatV1.10B1570,2013-01-31 15:06:00,
2013-01-31 10:11:00,40.7,21.5,29.87,SSW,199,11.0,19.0,46,0.00,,,0.04,455,WeatherCatV1.10B1570,2013-01-31 15:11:00,
2013-01-31 10:16:00,41.0,22.3,29.88,NW,305,7.0,9.0,47,0.00,,,0.04,466,WeatherCatV1.10B1570,2013-01-31 15:16:00,
2013-01-31 10:21:00,42.0,23.8,29.88,WNW,301,9.0,13.0,48,0.00,,,0.04,476,WeatherCatV1.10B1570,2013-01-31 15:21:00,
2013-01-31 10:26:00,41.8,23.6,29.88,WNW,297,4.0,8.0,48,0.00,,,0.04,490,WeatherCatV1.10B1570,2013-01-31 15:26:00,
2013-01-31 10:31:00,41.8,22.0,29.88,SSW,200,5.0,16.0,45,0.00,,,0.04,499,WeatherCatV1.10B1570,2013-01-31 15:31:00,
2013-01-31 10:36:00,41.4,21.7,29.89,WSW,237,9.0,14.0,45,0.00,,,0.04,506,WeatherCatV1.10B1570,2013-01-31 15:36:00,
2013-01-31 10:41:00,41.7,22.5,29.89,West,275,6.0,17.0,46,0.00,,,0.04,519,WeatherCatV1.10B1570,2013-01-31 15:41:00,
2013-01-31 10:46:00,42.1,22.8,29.89,West,265,8.0,17.0,46,0.00,,,0.04,531,WeatherCatV1.10B1570,2013-01-31 15:46:00,
2013-01-31 10:51:00,42.3,23.5,29.89,SSW,198,9.0,17.0,47,0.00,,,0.04,540,WeatherCatV1.10B1570,2013-01-31 15:51:00,
2013-01-31 10:56:00,42.3,22.0,29.89,WSW,240,7.0,18.0,44,0.00,,,0.04,548,WeatherCatV1.10B1570,2013-01-31 15:56:00,
2013-01-31 11:01:00,42.3,22.0,29.89,WSW,249,7.0,12.0,44,0.00,,,0.04,564,WeatherCatV1.10B1570,2013-01-31 16:01:00,
2013-01-31 11:06:00,42.2,21.9,29.89,West,268,8.0,9.0,44,0.00,,,0.04,570,WeatherCatV1.10B1570,2013-01-31 16:06:00,
2013-01-31 11:11:00,42.6,22.8,29.89,West,263,9.0,13.0,45,0.00,,,0.04,575,WeatherCatV1.10B1570,2013-01-31 16:11:00,
2013-01-31 11:16:00,43.1,24.3,29.90,WSW,254,3.0,5.0,47,0.00,,,0.04,596,WeatherCatV1.10B1570,2013-01-31 16:16:00,
2013-01-31 11:21:00,42.7,22.9,29.90,SSW,213,5.0,11.0,45,0.00,,,0.04,619,WeatherCatV1.10B1570,2013-01-31 16:21:00,
2013-01-31 11:26:00,43.7,23.8,29.90,WSW,246,4.0,6.0,45,0.00,,,0.04,606,WeatherCatV1.10B1570,2013-01-31 16:26:00,
2013-01-31 11:31:00,43.6,23.1,29.90,WNW,299,7.0,10.0,44,0.00,,,0.04,628,WeatherCatV1.10B1570,2013-01-31 16:31:00,
2013-01-31 11:36:00,43.2,22.8,29.90,SSW,205,7.0,14.0,44,0.00,,,0.04,682,WeatherCatV1.10B1570,2013-01-31 16:36:00,
2013-01-31 11:41:00,43.1,23.2,29.90,WSW,237,11.0,12.0,45,0.00,,,0.04,701,WeatherCatV1.10B1570,2013-01-31 16:41:00,
2013-01-31 11:46:00,43.6,23.7,29.90,SSW,195,7.0,11.0,45,0.00,,,0.04,707,WeatherCatV1.10B1570,2013-01-31 16:46:00,
2013-01-31 11:51:00,44.2,24.2,29.90,WNW,298,4.0,6.0,45,0.00,,,0.04,772,WeatherCatV1.10B1570,2013-01-31 16:51:00,
2013-01-31 11:56:00,43.6,23.1,29.90,SSW,194,5.0,11.0,44,0.00,,,0.04,487,WeatherCatV1.10B1570,2013-01-31 16:56:00,
2013-01-31 12:01:00,44.0,24.6,29.90,SW,218,2.0,9.0,46,0.00,,,0.04,722,WeatherCatV1.10B1570,2013-01-31 17:01:00,
2013-01-31 12:06:00,45.3,24.7,29.89,SW,233,6.0,14.0,44,0.00,,,0.04,174,WeatherCatV1.10B1570,2013-01-31 17:06:00,
2013-01-31 12:11:00,44.1,23.6,29.89,South,184,2.0,13.0,44,0.00,,,0.04,740,WeatherCatV1.10B1570,2013-01-31 17:11:00,
2013-01-31 12:16:00,43.9,23.4,29.89,WSW,254,5.0,11.0,44,0.00,,,0.04,617,WeatherCatV1.10B1570,2013-01-31 17:16:00,
2013-01-31 12:21:00,43.8,23.3,29.89,West,267,4.0,12.0,44,0.00,,,0.04,735,WeatherCatV1.10B1570,2013-01-31 17:21:00,
2013-01-31 12:26:00,43.0,22.6,29.90,West,262,4.0,5.0,44,0.00,,,0.04,700,WeatherCatV1.10B1570,2013-01-31 17:26:00,
2013-01-31 12:31:00,43.2,22.8,29.89,WSW,237,4.0,11.0,44,0.00,,,0.04,707,WeatherCatV1.10B1570,2013-01-31 17:31:00,
2013-01-31 12:36:00,43.9,23.4,29.89,West,272,4.0,16.0,44,0.00,,,0.04,696,WeatherCatV1.10B1570,2013-01-31 17:36:00,
2013-01-31 12:41:00,44.3,23.8,29.89,WSW,238,4.0,9.0,44,0.00,,,0.04,707,WeatherCatV1.10B1570,2013-01-31 17:41:00,
2013-01-31 12:46:00,44.8,23.7,29.89,SW,236,1.0,14.0,43,0.00,,,0.04,719,WeatherCatV1.10B1570,2013-01-31 17:46:00,
2013-01-31 12:51:00,44.5,22.9,29.89,WNW,299,3.0,11.0,42,0.00,,,0.04,788,WeatherCatV1.10B1570,2013-01-31 17:51:00,
2013-01-31 12:56:00,44.7,23.0,29.88,West,274,7.0,11.0,42,0.00,,,0.04,708,WeatherCatV1.10B1570,2013-01-31 17:56:00,
2013-01-31 13:01:00,44.8,23.7,29.89,West,274,8.0,14.0,43,0.00,,,0.04,793,WeatherCatV1.10B1570,2013-01-31 18:01:00,
2013-01-31 13:06:00,44.4,23.3,29.88,WSW,257,5.0,11.0,43,0.00,,,0.04,733,WeatherCatV1.10B1570,2013-01-31 18:06:00,
2013-01-31 13:11:00,43.9,22.9,29.88,West,265,7.0,15.0,43,0.00,,,0.04,341,WeatherCatV1.10B1570,2013-01-31 18:11:00,
2013-01-31 13:16:00,43.4,23.5,29.89,WSW,238,5.0,10.0,45,0.00,,,0.04,225,WeatherCatV1.10B1570,2013-01-31 18:16:00,
2013-01-31 13:21:00,42.9,22.5,29.89,WNW,299,5.0,11.0,44,0.00,,,0.04,503,WeatherCatV1.10B1570,2013-01-31 18:21:00,
2013-01-31 13:26:00,43.6,23.7,29.88,NNW,347,5.0,10.0,45,0.00,,,0.04,666,WeatherCatV1.10B1570,2013-01-31 18:26:00,
2013-01-31 13:31:00,44.4,23.3,29.89,West,268,3.0,9.0,43,0.00,,,0.04,751,WeatherCatV1.10B1570,2013-01-31 18:31:00,
2013-01-31 13:36:00,44.7,22.5,29.89,NW,317,3.0,10.0,41,0.00,,,0.04,663,WeatherCatV1.10B1570,2013-01-31 18:36:00,
2013-01-31 13:41:00,45.4,21.9,29.89,WNW,288,6.0,10.0,39,0.00,,,0.04,642,WeatherCatV1.10B1570,2013-01-31 18:41:00,
2013-01-31 13:46:00,45.4,21.3,29.89,WSW,248,9.0,14.0,38,0.00,,,0.04,633,WeatherCatV1.10B1570,2013-01-31 18:46:00,
2013-01-31 13:51:00,44.5,21.1,29.89,WSW,254,4.0,15.0,39,0.00,,,0.04,190,WeatherCatV1.10B1570,2013-01-31 18:51:00,
2013-01-31 13:56:00,44.2,22.0,29.89,NW,308,2.0,10.0,41,0.00,,,0.04,684,WeatherCatV1.10B1570,2013-01-31 18:56:00,
2013-01-31 14:01:00,44.2,22.0,29.90,WSW,241,7.0,14.0,41,0.00,,,0.04,127,WeatherCatV1.10B1570,2013-01-31 19:01:00,
2013-01-31 14:06:00,43.6,22.0,29.90,NW,318,4.0,8.0,42,0.00,,,0.04,121,WeatherCatV1.10B1570,2013-01-31 19:06:00,
2013-01-31 14:11:00,43.5,21.9,29.90,SW,230,1.0,13.0,42,0.00,,,0.04,190,WeatherCatV1.10B1570,2013-01-31 19:11:00,
2013-01-31 14:16:00,43.6,22.0,29.90,South,191,9.0,15.0,42,0.00,,,0.04,615,WeatherCatV1.10B1570,2013-01-31 19:16:00,
2013-01-31 14:21:00,43.6,21.5,29.90,NW,313,3.0,9.0,41,0.00,,,0.04,584,WeatherCatV1.10B1570,2013-01-31 19:21:00,
2013-01-31 14:26:00,43.8,21.6,29.90,WNW,290,9.0,18.0,41,0.00,,,0.04,130,WeatherCatV1.10B1570,2013-01-31 19:26:00,
2013-01-31 14:31:00,43.6,22.0,29.90,ESE,122,3.0,7.0,42,0.00,,,0.04,294,WeatherCatV1.10B1570,2013-01-31 19:31:00,
2013-01-31 14:36:00,43.2,21.1,29.90,SW,233,7.0,13.0,41,0.00,,,0.04,91,WeatherCatV1.10B1570,2013-01-31 19:36:00,
2013-01-31 14:41:00,42.8,20.7,29.91,SSE,165,4.0,14.0,41,0.00,,,0.04,93,WeatherCatV1.10B1570,2013-01-31 19:41:00,
2013-01-31 14:46:00,42.8,21.3,29.91,West,268,8.0,11.0,42,0.00,,,0.04,564,WeatherCatV1.10B1570,2013-01-31 19:46:00,
2013-01-31 14:51:00,43.9,21.7,29.91,West,274,15.0,15.0,41,0.00,,,0.04,118,WeatherCatV1.10B1570,2013-01-31 19:51:00,
2013-01-31 14:56:00,43.5,22.5,29.92,NW,314,1.0,8.0,43,0.00,,,0.04,93,WeatherCatV1.10B1570,2013-01-31 19:56:00,
2013-01-31 15:01:00,43.3,21.8,29.92,SW,228,5.0,14.0,42,0.00,,,0.04,186,WeatherCatV1.10B1570,2013-01-31 20:01:00,
2013-01-31 15:06:00,43.5,21.9,29.93,South,186,8.0,17.0,42,0.00,,,0.04,499,WeatherCatV1.10B1570,2013-01-31 20:06:00,
2013-01-31 15:11:00,43.9,20.6,29.93,WNW,285,15.0,21.0,39,0.00,,,0.04,471,WeatherCatV1.10B1570,2013-01-31 20:11:00,
2013-01-31 15:16:00,43.9,20.0,29.92,West,265,8.0,18.0,38,0.00,,,0.04,439,WeatherCatV1.10B1570,2013-01-31 20:16:00,
2013-01-31 15:21:00,43.9,21.2,29.93,SW,219,9.0,16.0,40,0.00,,,0.04,366,WeatherCatV1.10B1570,2013-01-31 20:21:00,
2013-01-31 15:26:00,43.9,20.6,29.93,WNW,290,10.0,16.0,39,0.00,,,0.04,404,WeatherCatV1.10B1570,2013-01-31 20:26:00,
2013-01-31 15:31:00,43.8,20.5,29.93,SSE,158,3.0,9.0,39,0.00,,,0.04,390,WeatherCatV1.10B1570,2013-01-31 20:31:00,
2013-01-31 15:36:00,43.8,20.5,29.93,NW,312,7.0,10.0,39,0.00,,,0.04,383,WeatherCatV1.10B1570,2013-01-31 20:36:00,
2013-01-31 15:41:00,44.1,21.3,29.94,WNW,292,6.0,13.0,40,0.00,,,0.04,364,WeatherCatV1.10B1570,2013-01-31 20:41:00,
2013-01-31 15:46:00,44.1,21.3,29.94,West,280,8.0,8.0,40,0.00,,,0.04,343,WeatherCatV1.10B1570,2013-01-31 20:46:00,
2013-01-31 15:51:00,44.0,21.2,29.94,NNE,18,7.0,11.0,40,0.00,,,0.04,330,WeatherCatV1.10B1570,2013-01-31 20:51:00,
2013-01-31 15:56:00,43.9,20.6,29.94,NW,307,15.0,20.0,39,0.00,,,0.04,309,WeatherCatV1.10B1570,2013-01-31 20:56:00,
2013-01-31 16:01:00,44.0,20.7,29.95,SSW,207,7.0,8.0,39,0.00,,,0.04,295,WeatherCatV1.10B1570,2013-01-31 21:01:00,
2013-01-31 16:06:00,43.8,19.9,29.95,SW,230,5.0,8.0,38,0.00,,,0.04,272,WeatherCatV1.10B1570,2013-01-31 21:06:00,
2013-01-31 16:11:00,43.8,19.9,29.94,SW,226,8.0,25.0,38,0.00,,,0.04,251,WeatherCatV1.10B1570,2013-01-31 21:11:00,
2013-01-31 16:16:00,43.5,19.0,29.95,South,185,18.0,24.0,37,0.00,,,0.04,227,WeatherCatV1.10B1570,2013-01-31 21:16:00,
2013-01-31 16:21:00,43.2,19.3,29.95,West,268,5.0,19.0,38,0.00,,,0.04,132,WeatherCatV1.10B1570,2013-01-31 21:21:00,
2013-01-31 16:26:00,43.3,20.6,29.95,NW,314,6.0,9.0,40,0.00,,,0.04,144,WeatherCatV1.10B1570,2013-01-31 21:26:00,
2013-01-31 16:31:00,43.1,19.8,29.96,WNW,297,6.0,21.0,39,0.00,,,0.04,121,WeatherCatV1.10B1570,2013-01-31 21:31:00,
2013-01-31 16:36:00,42.7,20.1,29.96,NNW,329,6.0,19.0,40,0.00,,,0.04,91,WeatherCatV1.10B1570,2013-01-31 21:36:00,
2013-01-31 16:41:00,42.6,20.0,29.96,WNW,293,11.0,22.0,40,0.00,,,0.04,107,WeatherCatV1.10B1570,2013-01-31 21:41:00,
2013-01-31 16:46:00,42.5,19.9,29.96,WNW,290,9.0,21.0,40,0.00,,,0.04,76,WeatherCatV1.10B1570,2013-01-31 21:46:00,
2013-01-31 16:51:00,42.4,21.0,29.97,North,356,8.0,8.0,42,0.00,,,0.04,84,WeatherCatV1.10B1570,2013-01-31 21:51:00,
2013-01-31 16:56:00,42.3,20.9,29.97,West,274,5.0,8.0,42,0.00,,,0.04,54,WeatherCatV1.10B1570,2013-01-31 21:56:00,
2013-01-31 17:01:00,42.2,20.8,29.97,WSW,253,3.0,19.0,42,0.00,,,0.04,33,WeatherCatV1.10B1570,2013-01-31 22:01:00,
2013-01-31 17:06:00,42.1,20.7,29.97,SSW,192,7.0,9.0,42,0.00,,,0.04,25,WeatherCatV1.10B1570,2013-01-31 22:06:00,
2013-01-31 17:11:00,42.0,20.0,29.97,SW,216,2.0,11.0,41,0.00,,,0.04,21,WeatherCatV1.10B1570,2013-01-31 22:11:00,
2013-01-31 17:16:00,41.8,21.0,29.97,North,355,5.0,6.0,43,0.00,,,0.04,18,WeatherCatV1.10B1570,2013-01-31 22:16:00,
2013-01-31 17:21:00,41.6,20.8,29.97,WSW,249,3.0,12.0,43,0.00,,,0.04,16,WeatherCatV1.10B1570,2013-01-31 22:21:00,
2013-01-31 17:26:00,41.4,20.0,29.97,West,277,6.0,16.0,42,0.00,,,0.04,14,WeatherCatV1.10B1570,2013-01-31 22:26:00,
2013-01-31 17:31:00,41.3,20.5,29.98,SSW,197,2.0,6.0,43,0.00,,,0.04,11,WeatherCatV1.10B1570,2013-01-31 22:31:00,
2013-01-31 17:36:00,41.0,19.7,29.98,NW,305,8.0,15.0,42,0.00,,,0.04,9,WeatherCatV1.10B1570,2013-01-31 22:36:00,
2013-01-31 17:41:00,41.0,19.7,29.98,WSW,245,1.0,15.0,42,0.00,,,0.04,7,WeatherCatV1.10B1570,2013-01-31 22:41:00,
2013-01-31 17:46:00,40.7,20.0,29.99,West,260,6.0,8.0,43,0.00,,,0.04,0,WeatherCatV1.10B1570,2013-01-31 22:46:00,
2013-01-31 17:51:00,40.6,19.9,29.99,NNE,14,4.0,10.0,43,0.00,,,0.04,0,WeatherCatV1.10B1570,2013-01-31 22:51:00,
2013-01-31 17:56:00,40.3,20.1,29.99,SW,220,4.0,8.0,44,0.00,,,0.04,0,WeatherCatV1.10B1570,2013-01-31 22:56:00,
2013-01-31 18:01:00,40.1,20.0,29.99,WNW,298,5.0,10.0,44,0.00,,,0.04,0,WeatherCatV1.10B1570,2013-01-31 23:01:00,
2013-01-31 18:06:00,39.8,20.2,29.99,SW,218,3.0,13.0,45,0.00,,,0.04,0,WeatherCatV1.10B1570,2013-01-31 23:06:00,
2013-01-31 18:11:00,39.7,20.6,29.99,West,277,2.0,6.0,46,0.00,,,0.04,0,WeatherCatV1.10B1570,2013-01-31 23:11:00,
2013-01-31 18:16:00,39.5,20.5,30.00,WSW,237,3.0,4.0,46,0.00,,,0.04,0,WeatherCatV1.10B1570,2013-01-31 23:16:00,
2013-01-31 18:21:00,39.3,20.3,30.00,SW,223,1.0,6.0,46,0.00,,,0.04,0,WeatherCatV1.10B1570,2013-01-31 23:21:00,
2013-01-31 18:26:00,39.3,20.3,30.00,SW,231,4.0,7.0,46,0.00,,,0.04,0,WeatherCatV1.10B1570,2013-01-31 23:26:00,
2013-01-31 18:31:00,39.1,20.1,30.00,WSW,244,1.0,3.0,46,0.00,,,0.04,0,WeatherCatV1.10B1570,2013-01-31 23:31:00,
2013-01-31 18:36:00,39.0,20.5,30.00,NNW,333,4.0,5.0,47,0.00,,,0.04,0,WeatherCatV1.10B1570,2013-01-31 23:36:00,
2013-01-31 18:41:00,38.9,20.4,30.00,SSW,199,2.0,4.0,47,0.00,,,0.04,0,WeatherCatV1.10B1570,2013-01-31 23:41:00,
2013-01-31 18:46:00,38.8,20.3,30.00,South,188,0.0,5.0,47,0.00,,,0.04,0,WeatherCatV1.10B1570,2013-01-31 23:46:00,
2013-01-31 18:51:00,38.7,20.7,30.00,WNW,295,2.0,2.0,48,0.00,,,0.04,0,WeatherCatV1.10B1570,2013-01-31 23:51:00,
2013-01-31 18:56:00,38.4,20.9,30.00,SSW,202,3.0,4.0,49,0.00,,,0.04,0,WeatherCatV1.10B1570,2013-01-31 23:56:00,
2013-01-31 19:01:00,38.3,20.4,30.01,SSW,199,1.0,7.0,48,0.00,,,0.04,0,WeatherCatV1.10B1570,2013-02-01 00:01:00,
2013-01-31 19:06:00,38.4,20.4,30.01,SSW,193,3.0,3.0,48,0.00,,,0.04,0,WeatherCatV1.10B1570,2013-02-01 00:06:00,
2013-01-31 19:11:00,38.3,20.4,30.01,South,172,1.0,2.0,48,0.00,,,0.04,0,WeatherCatV1.10B1570,2013-02-01 00:11:00,
2013-01-31 19:16:00,37.9,20.5,30.01,WSW,245,4.0,4.0,49,0.00,,,0.04,0,WeatherCatV1.10B1570,2013-02-01 00:16:00,
2013-01-31 19:21:00,38.0,20.6,30.01,SSW,196,2.0,4.0,49,0.00,,,0.04,0,WeatherCatV1.10B1570,2013-02-01 00:21:00,
2013-01-31 19:26:00,37.9,20.5,30.01,SW,229,1.0,4.0,49,0.00,,,0.04,0,WeatherCatV1.10B1570,2013-02-01 00:26:00,
2013-01-31 19:31:00,37.9,20.5,30.01,SSW,197,1.0,3.0,49,0.00,,,0.04,0,WeatherCatV1.10B1570,2013-02-01 00:31:00,
2013-01-31 19:36:00,37.9,20.0,30.01,WSW,255,2.0,7.0,48,0.00,,,0.04,0,WeatherCatV1.10B1570,2013-02-01 00:36:00,
2013-01-31 19:41:00,37.7,20.3,30.01,SSW,199,2.0,5.0,49,0.00,,,0.04,0,WeatherCatV1.10B1570,2013-02-01 00:41:00,
2013-01-31 19:46:00,37.7,20.3,30.01,SSW,206,1.0,7.0,49,0.00,,,0.04,0,WeatherCatV1.10B1570,2013-02-01 00:46:00,
2013-01-31 19:51:00,37.7,20.8,30.02,SW,228,2.0,3.0,50,0.00,,,0.04,0,WeatherCatV1.10B1570,2013-02-01 00:51:00,
2013-01-31 19:56:00,37.6,20.2,30.02,SSW,199,2.0,3.0,49,0.00,,,0.04,0,WeatherCatV1.10B1570,2013-02-01 00:56:00,
2013-01-31 20:01:00,37.7,20.3,30.02,SSW,197,4.0,5.0,49,0.00,,,0.04,0,WeatherCatV1.10B1570,2013-02-01 01:01:00,
2013-01-31 20:06:00,37.8,20.8,30.02,South,186,2.0,3.0,50,0.00,,,0.04,0,WeatherCatV1.10B1570,2013-02-01 01:06:00,
2013-01-31 20:11:00,37.8,20.4,30.02,SSW,213,3.0,5.0,49,0.00,,,0.04,0,WeatherCatV1.10B1570,2013-02-01 01:11:00,
2013-01-31 20:16:00,37.8,20.4,30.02,WSW,247,2.0,3.0,49,0.00,,,0.04,0,WeatherCatV1.10B1570,2013-02-01 01:16:00,
2013-01-31 20:21:00,37.8,20.4,30.02,SSW,197,2.0,5.0,49,0.00,,,0.04,0,WeatherCatV1.10B1570,2013-02-01 01:21:00,
2013-01-31 20:26:00,37.8,20.4,30.02,SW,230,1.0,3.0,49,0.00,,,0.04,0,WeatherCatV1.10B1570,2013-02-01 01:26:00,
2013-01-31 20:31:00,37.7,20.3,30.02,SSW,207,1.0,5.0,49,0.00,,,0.04,0,WeatherCatV1.10B1570,2013-02-01 01:31:00,
2013-01-31 20:36:00,37.3,20.9,30.02,South,186,2.0,3.0,51,0.00,,,0.04,0,WeatherCatV1.10B1570,2013-02-01 01:36:00,
2013-01-31 20:41:00,37.3,20.4,30.02,South,188,1.0,3.0,50,0.00,,,0.04,0,WeatherCatV1.10B1570,2013-02-01 01:41:00,
2013-01-31 20:46:00,37.1,20.7,30.02,West,260,1.0,1.0,51,0.00,,,0.04,0,WeatherCatV1.10B1570,2013-02-01 01:46:00,
2013-01-31 20:51:00,36.8,20.8,30.02,South,190,0.0,2.0,52,0.00,,,0.04,0,WeatherCatV1.10B1570,2013-02-01 01:51:00,
2013-01-31 20:56:00,36.8,20.8,30.02,WSW,237,2.0,2.0,52,0.00,,,0.04,0,WeatherCatV1.10B1570,2013-02-01 01:56:00,
2013-01-31 21:01:00,36.6,20.7,30.01,South,188,1.0,3.0,52,0.00,,,0.04,0,WeatherCatV1.10B1570,2013-02-01 02:01:00,
2013-01-31 21:06:00,36.7,20.8,30.02,SW,214,1.0,2.0,52,0.00,,,0.04,0,WeatherCatV1.10B1570,2013-02-01 02:06:00,
2013-01-31 21:11:00,36.9,20.5,30.02,SSW,193,1.0,1.0,51,0.00,,,0.04,0,WeatherCatV1.10B1570,2013-02-01 02:11:00,
2013-01-31 21:16:00,36.9,20.5,30.02,SW,224,2.0,2.0,51,0.00,,,0.04,0,WeatherCatV1.10B1570,2013-02-01 02:16:00,
2013-01-31 21:21:00,36.9,20.9,30.01,SSW,209,1.0,2.0,52,0.00,,,0.04,0,WeatherCatV1.10B1570,2013-02-01 02:21:00,
2013-01-31 21:26:00,36.8,20.8,30.01,SSW,195,1.0,3.0,52,0.00,,,0.04,0,WeatherCatV1.10B1570,2013-02-01 02:26:00,
2013-01-31 21:31:00,36.6,20.7,30.01,SSW,195,0.0,3.0,52,0.00,,,0.04,0,WeatherCatV1.10B1570,2013-02-01 02:31:00,
2013-01-31 21:37:00,36.7,20.3,30.01,WSW,243,2.0,2.0,51,0.00,,,0.04,0,WeatherCatV1.10B1570,2013-02-01 02:37:00,
2013-01-31 21:42:00,36.7,20.8,30.02,SW,234,0.0,2.0,52,0.00,,,0.04,0,WeatherCatV1.10B1570,2013-02-01 02:42:00,
2013-01-31 21:47:00,36.5,20.6,30.02,WSW,240,1.0,2.0,52,0.00,,,0.04,0,WeatherCatV1.10B1570,2013-02-01 02:47:00,
2013-01-31 21:52:00,36.6,20.7,30.02,SSW,212,2.0,4.0,52,0.00,,,0.04,0,WeatherCatV1.10B1570,2013-02-01 02:52:00,
2013-01-31 21:57:00,36.5,21.0,30.01,SSW,212,2.0,2.0,53,0.00,,,0.04,0,WeatherCatV1.10B1570,2013-02-01 02:57:00,
2013-01-31 22:02:00,36.3,21.3,30.01,SSW,193,1.0,2.0,54,0.00,,,0.04,0,WeatherCatV1.10B1570,2013-02-01 03:02:00,
2013-01-31 22:07:00,36.4,20.9,30.02,SSW,193,1.0,1.0,53,0.00,,,0.04,0,WeatherCatV1.10B1570,2013-02-01 03:07:00,
2013-01-31 22:12:00,36.4,20.9,30.02,WSW,244,1.0,1.0,53,0.00,,,0.04,0,WeatherCatV1.10B1570,2013-02-01 03:12:00,
2013-01-31 22:17:00,36.4,21.4,30.02,SSW,208,2.0,2.0,54,0.00,,,0.04,0,WeatherCatV1.10B1570,2013-02-01 03:17:00,
2013-01-31 22:22:00,36.6,20.7,30.02,SW,229,2.0,3.0,52,0.00,,,0.04,0,WeatherCatV1.10B1570,2013-02-01 03:22:00,
2013-01-31 22:27:00,36.7,20.8,30.02,South,191,5.0,5.0,52,0.00,,,0.04,0,WeatherCatV1.10B1570,2013-02-01 03:27:00,
2013-01-31 22:32:00,37.1,21.1,30.02,SSW,210,1.0,5.0,52,0.00,,,0.04,0,WeatherCatV1.10B1570,2013-02-01 03:32:00,
2013-01-31 22:37:00,37.3,20.9,30.03,South,191,2.0,5.0,51,0.00,,,0.04,0,WeatherCatV1.10B1570,2013-02-01 03:37:00,
2013-01-31 22:42:00,37.3,20.9,30.02,SSW,197,2.0,3.0,51,0.00,,,0.04,0,WeatherCatV1.10B1570,2013-02-01 03:42:00,
2013-01-31 22:47:00,37.5,20.6,30.02,SSW,196,1.0,4.0,50,0.00,,,0.04,0,WeatherCatV1.10B1570,2013-02-01 03:47:00,
2013-01-31 22:52:00,37.3,21.3,30.02,SSW,201,3.0,3.0,52,0.00,,,0.04,0,WeatherCatV1.10B1570,2013-02-01 03:52:00,
2013-01-31 22:57:00,37.2,21.2,30.02,West,274,5.0,6.0,52,0.00,,,0.04,0,WeatherCatV1.10B1570,2013-02-01 03:57:00,
2013-01-31 23:02:00,37.4,20.9,30.02,SW,219,2.0,3.0,51,0.00,,,0.04,0,WeatherCatV1.10B1570,2013-02-01 04:02:00,
2013-01-31 23:07:00,37.3,21.3,30.02,SW,218,2.0,2.0,52,0.00,,,0.04,0,WeatherCatV1.10B1570,2013-02-01 04:07:00,
2013-01-31 23:12:00,37.1,21.1,30.02,WSW,241,2.0,3.0,52,0.00,,,0.04,0,WeatherCatV1.10B1570,2013-02-01 04:12:00,
2013-01-31 23:17:00,37.0,21.0,30.02,SSW,197,1.0,3.0,52,0.00,,,0.04,0,WeatherCatV1.10B1570,2013-02-01 04:17:00,
2013-01-31 23:22:00,36.9,20.9,30.02,SSW,202,3.0,3.0,52,0.00,,,0.04,0,WeatherCatV1.10B1570,2013-02-01 04:22:00,
2013-01-31 23:27:00,37.1,21.1,30.01,SSW,204,4.0,5.0,52,0.00,,,0.04,0,WeatherCatV1.10B1570,2013-02-01 04:27:00,
2013-01-31 23:32:00,36.9,21.4,30.01,SW,218,2.0,3.0,53,0.00,,,0.04,0,WeatherCatV1.10B1570,2013-02-01 04:32:00,
2013-01-31 23:37:00,37.0,21.5,30.02,SSW,211,2.0,4.0,53,0.00,,,0.04,0,WeatherCatV1.10B1570,2013-02-01 04:37:00,
2013-01-31 23:42:00,37.1,21.1,30.02,SW,224,2.0,4.0,52,0.00,,,0.04,0,WeatherCatV1.10B1570,2013-02-01 04:42:00,
2013-01-31 23:47:00,37.2,21.7,30.01,SW,216,4.0,4.0,53,0.00,,,0.04,0,WeatherCatV1.10B1570,2013-02-01 04:47:00,
2013-01-31 23:52:00,37.4,21.4,30.01,SSW,197,4.0,5.0,52,0.00,,,0.04,0,WeatherCatV1.10B1570,2013-02-01 04:52:00,
2013-01-31 23:57:00,37.4,21.9,30.01,SSW,203,3.0,3.0,53,0.00,,,0.04,0,WeatherCatV1.10B1570,2013-02-01 04:57:00,